KAEX/AEX METAR and TAF weather

Enter ICAO airport designator
Station Type Date Time Source
KAEX METAR 2020/09/22 17:53 UTC NOAA

KAEX 221753Z 08007KT 10SM OVC017 24/19 A2999 RMK AO2 SLP159 60001 T02390194 10239 20194 58013 $


Station Type Date Time Source
KAEX Decoded METAR 2020/09/22 17:53 UTC NOAA

ALEXANDRIA INTERNATIONAL AIRPORT, LA, United States (KAEX) 31-33N 092-56W 27M
Sep 22, 2020 - 01:53 PM EDT / 2020.09.22 1753 UTC
Wind: from the E (080 degrees) at 8 MPH (7 KT):0
Visibility: 10 mile(s):0
Sky conditions: overcast
Temperature: 75.0 F (23.9 C)
Dew Point: 66.9 F (19.4 C)
Relative Humidity: 75%
Pressure (altimeter): 29.99 in. Hg (1015 hPa)
Pressure tendency: 0.04 inches (1.3 hPa) lower than three hours ago
ob: KAEX 221753Z 08007KT 10SM OVC017 24/19 A2999 RMK AO2 SLP159 60001 T02390194 10239 20194 58013
cycle: 18

Station Type Date Time Source
KAEX TAF 2020/09/22 18:27 UTC NOAA

TAF KAEX 221724Z 2218/2318 09008KT P6SM VCTS OVC015CB
TEMPO 2218/2222 VRB12G20KT 5SM SHRA OVC008
FM230000 08012KT P6SM VCSH OVC007
FM231200 08008KT 5SM -SHRA OVC007

Example: see airport list